Eftichia — C6ZI4 — position and weather

sailwx.info

Track history (hours):
 
Tides and Currents Weather Stations Pressure Air Temp Water Temp Dewpoint Dewpoint Depression Visibility Wind Speed Wind Dir Waves Ship Positions

Eftichia

Last reported at 2018-Feb-14 07:23 UTC. Time now 2018-Feb-23 05:09 UTC.
Position N 38°08' W 126°28'.
Warning: this ship's position is 8 days out of date.

Length 181 m; draft 6.1 m.

Type: Cargo ship. MMSI: 311033882.

Date/timePositionNaut miles runAvg speedWind from/ knotsBaromVisibWave heightAir tempDewpointWater temp
2018-Feb-14 07:23N 38°08' W 126°28'10811.4
2018-Feb-13 21:57N 38°10' W 124°11'510.5
2018-Feb-13 21:30N 38°09' W 124°05'510.4
2018-Feb-13 21:00N 38°09' W 123°58'510.4
2018-Feb-13 20:30N 38°09' W 123°52'510.3
2018-Feb-13 20:00N 38°10' W 123°45'510.2
2018-Feb-13 19:30N 38°10' W 123°39'5 9.9
2018-Feb-13 19:00N 38°10' W 123°32'510.0
2018-Feb-13 18:30N 38°10' W 123°26'5 9.8
2018-Feb-13 18:00N 38°09' W 123°20'510.4
2018-Feb-13 17:30N 38°05' W 123°16'510.3
2018-Feb-13 17:00N 38°01' W 123°12'510.0
2018-Feb-13 16:30N 37°58' W 123°07'510.1
2018-Feb-13 16:00N 37°55' W 123°01'510.5
2018-Feb-13 15:30N 37°53' W 122°55'510.6
2018-Feb-13 15:00N 37°50' W 122°50'510.5
2018-Feb-13 14:30N 37°47' W 122°44'5 9.3
2018-Feb-13 14:00N 37°46' W 122°38'510.2
2018-Feb-13 13:30N 37°48' W 122°32'510.7
2018-Feb-13 13:00N 37°51' W 122°27'510.1
2018-Feb-13 12:30N 37°47' W 122°22'2 4.6
2018-Feb-13 11:59N 37°45' W 122°21'0 0.0
2018-Feb-13 11:29N 37°45' W 122°21'0 0.0
2018-Feb-13 10:59N 37°45' W 122°21'0 0.0
2018-Feb-13 10:29N 37°45' W 122°21'0 0.0
2018-Feb-13 09:59N 37°45' W 122°21'0 0.0
2018-Feb-13 09:29N 37°45' W 122°21'0 0.1
2018-Feb-13 08:59N 37°45' W 122°21'0 0.3
2018-Feb-13 08:29N 37°45' W 122°21'0 0.1
2018-Feb-13 07:59N 37°45' W 122°21'0 0.1
2018-Feb-13 07:29N 37°45' W 122°21'0 0.0
2018-Feb-13 06:59N 37°45' W 122°21'0 0.0
2018-Feb-13 06:29N 37°45' W 122°21'0 0.0
2018-Feb-13 05:59N 37°45' W 122°21'0 0.1
2018-Feb-13 05:29N 37°45' W 122°20'0 0.1
2018-Feb-13 04:59N 37°45' W 122°21'0 0.1
2018-Feb-13 04:29N 37°45' W 122°20'0 0.1
2018-Feb-13 03:59N 37°45' W 122°21'0 0.0
2018-Feb-13 03:29N 37°45' W 122°21'0 0.0
2018-Feb-13 02:59N 37°45' W 122°21'0 0.0
2018-Feb-13 02:29N 37°45' W 122°21'0 0.1
2018-Feb-13 01:59N 37°45' W 122°20'0 0.1
2018-Feb-13 01:29N 37°45' W 122°20'0 0.3
2018-Feb-13 00:59N 37°45' W 122°21'0 0.1
2018-Feb-13 00:29N 37°45' W 122°21'0 0.0
2018-Feb-12 23:59N 37°45' W 122°21'0 0.0
2018-Feb-12 23:29N 37°45' W 122°21'0 0.1
2018-Feb-12 22:59N 37°45' W 122°21'0 0.0
2018-Feb-12 22:29N 37°45' W 122°21'0 0.0
2018-Feb-12 21:59N 37°45' W 122°21'0 0.0
2018-Feb-12 21:29N 37°45' W 122°21'0 0.0
2018-Feb-12 20:59N 37°45' W 122°21'0 0.0
2018-Feb-12 20:29N 37°45' W 122°21'0 0.1
2018-Feb-12 19:59N 37°45' W 122°21'0 0.0
2018-Feb-12 19:29N 37°45' W 122°21'0 0.0
2018-Feb-12 18:59N 37°45' W 122°21'0 0.3
2018-Feb-12 18:29N 37°45' W 122°21'0 0.2
2018-Feb-12 17:59N 37°45' W 122°21'0 0.0
2018-Feb-12 17:29N 37°45' W 122°21'0 0.1
2018-Feb-12 16:59N 37°45' W 122°21'0 0.0
2018-Feb-12 16:29N 37°45' W 122°21'0 0.0
2018-Feb-12 15:59N 37°45' W 122°21'0 0.0
2018-Feb-12 15:29N 37°45' W 122°21'0 0.0
2018-Feb-12 14:59N 37°45' W 122°21'0 0.0
2018-Feb-12 14:29N 37°45' W 122°21'0 0.0
2018-Feb-12 13:59N 37°45' W 122°21'0 0.0
2018-Feb-12 13:29N 37°45' W 122°21'0 0.0
2018-Feb-12 12:59N 37°45' W 122°21'0 0.2
2018-Feb-12 12:29N 37°45' W 122°20'0 0.3
2018-Feb-12 11:59N 37°45' W 122°21'0 0.1
2018-Feb-12 11:29N 37°45' W 122°21'0 0.0
2018-Feb-12 10:59N 37°45' W 122°21'0 0.0
2018-Feb-12 10:29N 37°45' W 122°21'0 0.0
2018-Feb-12 09:59N 37°45' W 122°21'0 0.0
2018-Feb-12 09:29N 37°45' W 122°21'0 0.0
2018-Feb-12 08:59N 37°45' W 122°21'0 0.0
2018-Feb-12 08:29N 37°45' W 122°21'0 0.1
2018-Feb-12 08:01N 37°45' W 122°21'0 0.6
2018-Feb-12 07:30N 37°45' W 122°20'3 5.7
2018-Feb-12 07:01N 37°48' W 122°22'3 6.6
2018-Feb-12 06:30N 37°48' W 122°18'0 0.2
2018-Feb-12 05:58N 37°48' W 122°18'0 0.0
2018-Feb-12 05:28N 37°48' W 122°18'0 0.0
2018-Feb-12 04:58N 37°48' W 122°18'0 0.0
2018-Feb-12 04:28N 37°48' W 122°18'0 0.0
2018-Feb-12 03:58N 37°48' W 122°18'0 0.0
2018-Feb-12 03:28N 37°48' W 122°18'0 0.0
2018-Feb-12 02:58N 37°48' W 122°18'0 0.0
2018-Feb-12 02:28N 37°48' W 122°18'0 0.0
2018-Feb-12 01:58N 37°48' W 122°18'0 0.0
2018-Feb-12 01:28N 37°48' W 122°18'0 0.0
2018-Feb-12 00:58N 37°48' W 122°18'0 0.0
2018-Feb-12 00:28N 37°48' W 122°18'0 0.0
2018-Feb-11 23:58N 37°48' W 122°18'0 0.0
2018-Feb-11 23:28N 37°48' W 122°18'0 0.0
2018-Feb-11 22:58N 37°48' W 122°18'0 0.0
2018-Feb-11 22:28N 37°48' W 122°18'0 0.0
2018-Feb-11 21:58N 37°48' W 122°18'0 0.0
2018-Feb-11 21:28N 37°48' W 122°18'0 0.0
2018-Feb-11 20:58N 37°48' W 122°18'0 0.0
2018-Feb-11 20:28N 37°48' W 122°18'0 0.0
2018-Feb-11 19:58N 37°48' W 122°18'0 0.0
2018-Feb-11 19:28N 37°48' W 122°18'0 0.0
2018-Feb-11 18:58N 37°48' W 122°18'0 0.0
2018-Feb-11 18:28N 37°48' W 122°18'0 0.0
2018-Feb-11 17:58N 37°48' W 122°18'0 0.0
2018-Feb-11 17:28N 37°48' W 122°18'0 0.0
2018-Feb-11 16:58N 37°48' W 122°18'0 0.0
2018-Feb-11 16:25N 37°48' W 122°18'0 0.0
2018-Feb-11 15:58N 37°48' W 122°18'0 0.0
2018-Feb-11 15:28N 37°48' W 122°18'0 0.0
2018-Feb-11 14:58N 37°48' W 122°18'0 0.0
2018-Feb-11 14:28N 37°48' W 122°18'0 0.0
2018-Feb-11 13:58N 37°48' W 122°18'0 0.0
2018-Feb-11 13:28N 37°48' W 122°18'0 0.0
2018-Feb-11 12:58N 37°48' W 122°18'0 0.0
2018-Feb-11 12:28N 37°48' W 122°18'0 0.0
2018-Feb-11 11:58N 37°48' W 122°18'0 0.0
2018-Feb-11 11:28N 37°48' W 122°18'0 0.0
2018-Feb-11 10:58N 37°48' W 122°18'0 0.0
2018-Feb-11 10:28N 37°48' W 122°18'0 0.0
2018-Feb-11 09:58N 37°48' W 122°18'0 0.0
2018-Feb-11 09:28N 37°48' W 122°18'0 0.0
2018-Feb-11 08:58N 37°48' W 122°18'0 0.0
2018-Feb-11 08:28N 37°48' W 122°18'0 0.0
2018-Feb-11 07:58N 37°48' W 122°18'0 0.0
2018-Feb-11 07:28N 37°48' W 122°18'0 0.0
2018-Feb-11 06:55N 37°48' W 122°18'0 0.0
2018-Feb-11 06:28N 37°48' W 122°18'0 0.0
2018-Feb-11 05:58N 37°48' W 122°18'0 0.0
2018-Feb-11 05:28N 37°48' W 122°18'0 0.0
2018-Feb-11 04:58N 37°48' W 122°18'0 0.0
2018-Feb-11 04:28N 37°48' W 122°18'0 0.0
2018-Feb-11 03:58N 37°48' W 122°18'0 0.0
2018-Feb-11 03:28N 37°48' W 122°18'0 0.0
2018-Feb-11 02:58N 37°48' W 122°18'0 0.0
2018-Feb-11 02:28N 37°48' W 122°18'0 0.0
2018-Feb-11 01:58N 37°48' W 122°18'0 0.0
2018-Feb-11 01:28N 37°48' W 122°18'0 0.0
2018-Feb-11 00:58N 37°48' W 122°18'0 0.0
2018-Feb-11 00:28N 37°48' W 122°18'0 0.0
2018-Feb-10 23:58N 37°48' W 122°18'0 0.0
2018-Feb-10 23:28N 37°48' W 122°18'0 0.0
2018-Feb-10 22:58N 37°48' W 122°18'0 0.0
2018-Feb-10 22:28N 37°48' W 122°18'0 0.0
2018-Feb-10 21:58N 37°48' W 122°18'0 0.0
2018-Feb-10 21:28N 37°48' W 122°18'0 0.0
2018-Feb-10 20:58N 37°48' W 122°18'0 0.0
2018-Feb-10 20:28N 37°48' W 122°18'0 0.0
2018-Feb-10 19:58N 37°48' W 122°18'0 0.0
2018-Feb-10 19:28N 37°48' W 122°18'0 0.0
2018-Feb-10 18:58N 37°48' W 122°18'0 0.0
2018-Feb-10 18:28N 37°48' W 122°18'0 0.0
2018-Feb-10 17:58N 37°48' W 122°18'0 0.0
2018-Feb-10 17:28N 37°48' W 122°18'0 0.0
2018-Feb-10 16:58N 37°48' W 122°18'0 0.0
2018-Feb-10 16:28N 37°48' W 122°18'0 0.0
2018-Feb-10 15:58N 37°48' W 122°18'0 0.0
2018-Feb-10 15:28N 37°48' W 122°18'0 0.0
2018-Feb-10 14:58N 37°48' W 122°18'0 0.0
2018-Feb-10 14:28N 37°48' W 122°18'0 0.0
2018-Feb-10 13:58N 37°48' W 122°18'0 0.0
2018-Feb-10 13:28N 37°48' W 122°18'0 0.0
2018-Feb-10 12:58N 37°48' W 122°18'0 0.0
2018-Feb-10 12:28N 37°48' W 122°18'0 0.0
2018-Feb-10 11:58N 37°48' W 122°18'0 0.0
2018-Feb-10 11:28N 37°48' W 122°18'0 0.0
2018-Feb-10 10:58N 37°48' W 122°18'0 0.0
2018-Feb-10 10:28N 37°48' W 122°18'0 0.0
2018-Feb-10 09:58N 37°48' W 122°18'0 0.0
2018-Feb-10 09:28N 37°48' W 122°18'0 0.0
2018-Feb-10 08:58N 37°48' W 122°18'0 0.0
2018-Feb-10 08:28N 37°48' W 122°18'0 0.0
2018-Feb-10 07:58N 37°48' W 122°18'0 0.0
2018-Feb-10 07:28N 37°48' W 122°18'0 0.0
2018-Feb-10 06:58N 37°48' W 122°18'0 0.0
2018-Feb-10 06:28N 37°48' W 122°18'0 0.0
2018-Feb-10 05:58N 37°48' W 122°18'0 0.0
2018-Feb-10 05:28N 37°48' W 122°18'0 0.0
2018-Feb-10 04:58N 37°48' W 122°18'0 0.0
2018-Feb-10 04:28N 37°48' W 122°18'0 0.0
2018-Feb-10 03:58N 37°48' W 122°18'0 0.0
2018-Feb-10 03:28N 37°48' W 122°18'0 0.0
2018-Feb-10 02:58N 37°48' W 122°18'0 0.0
2018-Feb-10 02:28N 37°48' W 122°18'0 0.0
2018-Feb-10 01:58N 37°48' W 122°18'0 0.0
2018-Feb-10 01:28N 37°48' W 122°18'0 0.0
2018-Feb-10 00:58N 37°48' W 122°18'0 0.0
2018-Feb-10 00:28N 37°48' W 122°18'0 0.0
2018-Feb-09 23:58N 37°48' W 122°18'0 0.0
2018-Feb-09 23:28N 37°48' W 122°18'0 0.0
2018-Feb-09 22:58N 37°48' W 122°18'0 0.0
2018-Feb-09 22:46N 37°48' W 122°18'0 0.0
2018-Feb-08 01:28N 37°48' W 122°18'0 0.0
2018-Feb-08 00:58N 37°48' W 122°18'0 0.0
2018-Feb-08 00:28N 37°48' W 122°18'0 0.0
2018-Feb-07 23:58N 37°48' W 122°18'0 0.0
2018-Feb-07 23:28N 37°48' W 122°18'0 0.0
2018-Feb-07 22:58N 37°48' W 122°18'0 0.0
2018-Feb-07 22:28N 37°48' W 122°18'0 0.0
2018-Feb-07 21:58N 37°48' W 122°18'0 0.0
2018-Feb-07 21:28N 37°48' W 122°18'3 0.2
2018-Feb-07 09:30N 37°46' W 122°20'0 0.0
2018-Feb-07 09:00N 37°46' W 122°20'0 0.0
2018-Feb-07 08:30N 37°46' W 122°20'0 0.1
2018-Feb-07 08:00N 37°46' W 122°20'0 0.0
2018-Feb-07 07:30N 37°46' W 122°20'0 0.2
2018-Feb-07 07:00N 37°46' W 122°21'0 0.1
2018-Feb-07 06:30N 37°46' W 122°20'0 0.0
2018-Feb-07 06:00N 37°46' W 122°20'0 0.0
2018-Feb-07 05:30N 37°46' W 122°20'0 0.0
2018-Feb-07 05:00N 37°46' W 122°20'0 0.0
2018-Feb-07 04:30N 37°46' W 122°20'0 0.0
2018-Feb-07 03:57N 37°46' W 122°20'0 0.0
2018-Feb-07 03:30N 37°46' W 122°20'0 0.0
2018-Feb-07 03:00N 37°46' W 122°20'0 0.0
2018-Feb-07 02:30N 37°46' W 122°20'0 0.1
2018-Feb-07 02:00N 37°46' W 122°21'0 0.4
2018-Feb-07 01:30N 37°46' W 122°20'0 0.0
2018-Feb-07 01:00N 37°46' W 122°20'0 0.0
2018-Feb-07 00:27N 37°46' W 122°20'0 0.0
2018-Feb-07 00:00N 37°46' W 122°20'0 0.0
2018-Feb-06 23:30N 37°46' W 122°20'0 0.0
2018-Feb-06 23:00N 37°46' W 122°20'0 0.0
2018-Feb-06 22:27N 37°46' W 122°20'0 0.0
2018-Feb-06 21:57N 37°46' W 122°20'0 0.0
2018-Feb-06 21:27N 37°46' W 122°20'0 0.0
2018-Feb-06 21:00N 37°46' W 122°20'0 0.0
2018-Feb-06 20:30N 37°46' W 122°20'0 0.0
2018-Feb-06 20:00N 37°46' W 122°20'0 0.0
2018-Feb-06 19:30N 37°46' W 122°20'0 0.1
2018-Feb-06 18:57N 37°46' W 122°20'0 0.3
2018-Feb-06 18:30N 37°46' W 122°20'0 0.1
2018-Feb-06 18:00N 37°46' W 122°20'0 0.0
2018-Feb-06 17:27N 37°46' W 122°20'0 0.0
2018-Feb-06 17:00N 37°46' W 122°20'0 0.0
2018-Feb-06 16:30N 37°46' W 122°20'0 0.0
2018-Feb-06 16:00N 37°46' W 122°20'0 0.0
2018-Feb-06 15:30N 37°46' W 122°20'0 0.0
2018-Feb-06 15:00N 37°46' W 122°20'0 0.0
2018-Feb-06 14:27N 37°46' W 122°20'0 0.0
2018-Feb-06 14:00N 37°46' W 122°20'0 0.1
2018-Feb-06 13:30N 37°46' W 122°21'0 0.3
2018-Feb-06 13:00N 37°46' W 122°20'0 0.1
2018-Feb-06 12:30N 37°46' W 122°20'0 0.0
2018-Feb-06 12:00N 37°46' W 122°20'0 0.1
2018-Feb-06 11:30N 37°46' W 122°20'0 0.0
2018-Feb-06 11:00N 37°46' W 122°20'0 0.0
2018-Feb-06 10:30N 37°46' W 122°20'0 0.0
2018-Feb-06 10:00N 37°46' W 122°20'0 0.0
2018-Feb-06 09:30N 37°46' W 122°20'0 0.0
2018-Feb-06 09:00N 37°46' W 122°20'0 0.0
2018-Feb-06 08:30N 37°46' W 122°20'0 0.0
2018-Feb-06 08:00N 37°46' W 122°20'0 0.0
2018-Feb-06 07:30N 37°46' W 122°20'0 0.0
2018-Feb-06 07:00N 37°46' W 122°20'0 0.0
2018-Feb-06 06:30N 37°46' W 122°20'0 0.2
2018-Feb-06 06:00N 37°46' W 122°20'0 0.2
2018-Feb-06 05:30N 37°46' W 122°20'0 0.0
2018-Feb-06 05:00N 37°46' W 122°20'0 0.0
2018-Feb-06 04:30N 37°46' W 122°20'0 0.0
2018-Feb-06 04:00N 37°46' W 122°20'0 0.0
2018-Feb-06 03:30N 37°46' W 122°20'0 0.0
2018-Feb-06 03:00N 37°46' W 122°20'0 0.0
2018-Feb-06 02:30N 37°46' W 122°20'0 0.0
2018-Feb-06 02:00N 37°46' W 122°20'0 0.0
2018-Feb-06 01:30N 37°46' W 122°20'0 0.0
2018-Feb-06 01:00N 37°46' W 122°20'0 0.2
2018-Feb-06 00:30N 37°46' W 122°21'0 0.3
2018-Feb-06 00:00N 37°46' W 122°20'0 0.1
2018-Feb-05 23:30N 37°46' W 122°20'0 0.0
2018-Feb-05 23:00N 37°46' W 122°20'0 0.0
2018-Feb-05 22:30N 37°46' W 122°20'0 0.0
2018-Feb-05 22:00N 37°46' W 122°20'0 0.0
2018-Feb-05 21:30N 37°46' W 122°20'0 0.0
2018-Feb-05 21:00N 37°46' W 122°20'0 0.0
2018-Feb-05 20:30N 37°46' W 122°20'0 0.0
2018-Feb-05 20:00N 37°46' W 122°20'0 0.0
2018-Feb-05 19:30N 37°46' W 122°20'0 0.1
2018-Feb-05 19:00N 37°46' W 122°20'0 0.2
2018-Feb-05 18:30N 37°46' W 122°20'0 0.2
2018-Feb-05 18:00N 37°46' W 122°21'0 0.1
2018-Feb-05 17:30N 37°46' W 122°20'0 0.0
2018-Feb-05 17:00N 37°46' W 122°20'0 0.0
2018-Feb-05 16:30N 37°46' W 122°20'0 0.0
2018-Feb-05 16:00N 37°46' W 122°20'0 0.0
2018-Feb-05 15:30N 37°46' W 122°20'0 0.0
2018-Feb-05 15:00N 37°46' W 122°20'0 0.0
2018-Feb-05 14:30N 37°46' W 122°20'0 0.0
2018-Feb-05 14:00N 37°46' W 122°20'0 0.0
2018-Feb-05 13:30N 37°46' W 122°20'0 0.0
2018-Feb-05 13:00N 37°46' W 122°20'0 0.0
2018-Feb-05 12:30N 37°46' W 122°20'0 0.2
2018-Feb-05 12:00N 37°46' W 122°20'0 0.1
2018-Feb-05 11:30N 37°46' W 122°20'0 0.1
2018-Feb-05 11:00N 37°46' W 122°20'0 0.0
2018-Feb-05 10:30N 37°46' W 122°20'0 0.0
2018-Feb-05 10:00N 37°46' W 122°20'0 0.0
2018-Feb-05 09:30N 37°46' W 122°20'0 0.0
2018-Feb-05 09:00N 37°46' W 122°20'0 0.0
2018-Feb-05 08:30N 37°46' W 122°20'0 0.0
2018-Feb-05 08:00N 37°46' W 122°20'0 0.0
2018-Feb-05 07:30N 37°46' W 122°20'0 0.0
2018-Feb-05 07:00N 37°46' W 122°20'0 0.0
2018-Feb-05 06:30N 37°46' W 122°20'0 0.2
2018-Feb-05 05:30N 37°46' W 122°21'0 0.1
2018-Feb-05 05:00N 37°46' W 122°20'0 0.0
2018-Feb-05 04:30N 37°46' W 122°20'1 2.6
2018-Feb-05 04:00N 37°47' W 122°22'510.8
2018-Feb-05 03:30N 37°52' W 122°25'714.6
2018-Feb-05 03:01N 37°59' W 122°25'714.1
2018-Feb-05 02:31N 38°03' W 122°18'712.2
2018-Feb-05 01:58N 38°02' W 122°10'610.5
2018-Feb-05 01:26N 38°04' W 122°03'4 9.4
2018-Feb-05 00:59N 38°04' W 121°58'5 8.8
2018-Feb-05 00:27N 38°04' W 121°52'  
Track history (hours):
 
Tides and Currents Weather Stations Pressure Air Temp Water Temp Dewpoint Dewpoint Depression Visibility Wind Speed Wind Dir Waves Ship Positions

Eftichia

Last reported at 2018-Feb-14 07:23 UTC. Time now 2018-Feb-23 05:09 UTC.
Position N 38°08' W 126°28'.
Warning: this ship's position is 8 days out of date.

Length 181 m; draft 6.1 m.

Type: Cargo ship. MMSI: 311033882.

Date/timePositionNaut miles runAvg speedWind from/ knotsBaromVisibWave heightAir tempDewpointWater temp
2018-Feb-14 07:23N 38°08' W 126°28'10811.4
2018-Feb-13 21:57N 38°10' W 124°11'510.5
2018-Feb-13 21:30N 38°09' W 124°05'510.4
2018-Feb-13 21:00N 38°09' W 123°58'510.4
2018-Feb-13 20:30N 38°09' W 123°52'510.3
2018-Feb-13 20:00N 38°10' W 123°45'510.2
2018-Feb-13 19:30N 38°10' W 123°39'5 9.9
2018-Feb-13 19:00N 38°10' W 123°32'510.0
2018-Feb-13 18:30N 38°10' W 123°26'5 9.8
2018-Feb-13 18:00N 38°09' W 123°20'510.4
2018-Feb-13 17:30N 38°05' W 123°16'510.3
2018-Feb-13 17:00N 38°01' W 123°12'510.0
2018-Feb-13 16:30N 37°58' W 123°07'510.1
2018-Feb-13 16:00N 37°55' W 123°01'510.5
2018-Feb-13 15:30N 37°53' W 122°55'510.6
2018-Feb-13 15:00N 37°50' W 122°50'510.5
2018-Feb-13 14:30N 37°47' W 122°44'5 9.3
2018-Feb-13 14:00N 37°46' W 122°38'510.2
2018-Feb-13 13:30N 37°48' W 122°32'510.7
2018-Feb-13 13:00N 37°51' W 122°27'510.1
2018-Feb-13 12:30N 37°47' W 122°22'2 4.6
2018-Feb-13 11:59N 37°45' W 122°21'0 0.0
2018-Feb-13 11:29N 37°45' W 122°21'0 0.0
2018-Feb-13 10:59N 37°45' W 122°21'0 0.0
2018-Feb-13 10:29N 37°45' W 122°21'0 0.0
2018-Feb-13 09:59N 37°45' W 122°21'0 0.0
2018-Feb-13 09:29N 37°45' W 122°21'0 0.1
2018-Feb-13 08:59N 37°45' W 122°21'0 0.3
2018-Feb-13 08:29N 37°45' W 122°21'0 0.1
2018-Feb-13 07:59N 37°45' W 122°21'0 0.1
2018-Feb-13 07:29N 37°45' W 122°21'0 0.0
2018-Feb-13 06:59N 37°45' W 122°21'0 0.0
2018-Feb-13 06:29N 37°45' W 122°21'0 0.0
2018-Feb-13 05:59N 37°45' W 122°21'0 0.1
2018-Feb-13 05:29N 37°45' W 122°20'0 0.1
2018-Feb-13 04:59N 37°45' W 122°21'0 0.1
2018-Feb-13 04:29N 37°45' W 122°20'0 0.1
2018-Feb-13 03:59N 37°45' W 122°21'0 0.0
2018-Feb-13 03:29N 37°45' W 122°21'0 0.0
2018-Feb-13 02:59N 37°45' W 122°21'0 0.0
2018-Feb-13 02:29N 37°45' W 122°21'0 0.1
2018-Feb-13 01:59N 37°45' W 122°20'0 0.1
2018-Feb-13 01:29N 37°45' W 122°20'0 0.3
2018-Feb-13 00:59N 37°45' W 122°21'0 0.1
2018-Feb-13 00:29N 37°45' W 122°21'0 0.0
2018-Feb-12 23:59N 37°45' W 122°21'0 0.0
2018-Feb-12 23:29N 37°45' W 122°21'0 0.1
2018-Feb-12 22:59N 37°45' W 122°21'0 0.0
2018-Feb-12 22:29N 37°45' W 122°21'0 0.0
2018-Feb-12 21:59N 37°45' W 122°21'0 0.0
2018-Feb-12 21:29N 37°45' W 122°21'0 0.0
2018-Feb-12 20:59N 37°45' W 122°21'0 0.0
2018-Feb-12 20:29N 37°45' W 122°21'0 0.1
2018-Feb-12 19:59N 37°45' W 122°21'0 0.0
2018-Feb-12 19:29N 37°45' W 122°21'0 0.0
2018-Feb-12 18:59N 37°45' W 122°21'0 0.3
2018-Feb-12 18:29N 37°45' W 122°21'0 0.2
2018-Feb-12 17:59N 37°45' W 122°21'0 0.0
2018-Feb-12 17:29N 37°45' W 122°21'0 0.1
2018-Feb-12 16:59N 37°45' W 122°21'0 0.0
2018-Feb-12 16:29N 37°45' W 122°21'0 0.0
2018-Feb-12 15:59N 37°45' W 122°21'0 0.0
2018-Feb-12 15:29N 37°45' W 122°21'0 0.0
2018-Feb-12 14:59N 37°45' W 122°21'0 0.0
2018-Feb-12 14:29N 37°45' W 122°21'0 0.0
2018-Feb-12 13:59N 37°45' W 122°21'0 0.0
2018-Feb-12 13:29N 37°45' W 122°21'0 0.0
2018-Feb-12 12:59N 37°45' W 122°21'0 0.2
2018-Feb-12 12:29N 37°45' W 122°20'0 0.3
2018-Feb-12 11:59N 37°45' W 122°21'0 0.1
2018-Feb-12 11:29N 37°45' W 122°21'0 0.0
2018-Feb-12 10:59N 37°45' W 122°21'0 0.0
2018-Feb-12 10:29N 37°45' W 122°21'0 0.0
2018-Feb-12 09:59N 37°45' W 122°21'0 0.0
2018-Feb-12 09:29N 37°45' W 122°21'0 0.0
2018-Feb-12 08:59N 37°45' W 122°21'0 0.0
2018-Feb-12 08:29N 37°45' W 122°21'0 0.1
2018-Feb-12 08:01N 37°45' W 122°21'0 0.6
2018-Feb-12 07:30N 37°45' W 122°20'3 5.7
2018-Feb-12 07:01N 37°48' W 122°22'3 6.6
2018-Feb-12 06:30N 37°48' W 122°18'0 0.2
2018-Feb-12 05:58N 37°48' W 122°18'0 0.0
2018-Feb-12 05:28N 37°48' W 122°18'0 0.0
2018-Feb-12 04:58N 37°48' W 122°18'0 0.0
2018-Feb-12 04:28N 37°48' W 122°18'0 0.0
2018-Feb-12 03:58N 37°48' W 122°18'0 0.0
2018-Feb-12 03:28N 37°48' W 122°18'0 0.0
2018-Feb-12 02:58N 37°48' W 122°18'0 0.0
2018-Feb-12 02:28N 37°48' W 122°18'0 0.0
2018-Feb-12 01:58N 37°48' W 122°18'0 0.0
2018-Feb-12 01:28N 37°48' W 122°18'0 0.0
2018-Feb-12 00:58N 37°48' W 122°18'0 0.0
2018-Feb-12 00:28N 37°48' W 122°18'0 0.0
2018-Feb-11 23:58N 37°48' W 122°18'0 0.0
2018-Feb-11 23:28N 37°48' W 122°18'0 0.0
2018-Feb-11 22:58N 37°48' W 122°18'0 0.0
2018-Feb-11 22:28N 37°48' W 122°18'0 0.0
2018-Feb-11 21:58N 37°48' W 122°18'0 0.0
2018-Feb-11 21:28N 37°48' W 122°18'0 0.0
2018-Feb-11 20:58N 37°48' W 122°18'0 0.0
2018-Feb-11 20:28N 37°48' W 122°18'0 0.0
2018-Feb-11 19:58N 37°48' W 122°18'0 0.0
2018-Feb-11 19:28N 37°48' W 122°18'0 0.0
2018-Feb-11 18:58N 37°48' W 122°18'0 0.0
2018-Feb-11 18:28N 37°48' W 122°18'0 0.0
2018-Feb-11 17:58N 37°48' W 122°18'0 0.0
2018-Feb-11 17:28N 37°48' W 122°18'0 0.0
2018-Feb-11 16:58N 37°48' W 122°18'0 0.0
2018-Feb-11 16:25N 37°48' W 122°18'0 0.0
2018-Feb-11 15:58N 37°48' W 122°18'0 0.0
2018-Feb-11 15:28N 37°48' W 122°18'0 0.0
2018-Feb-11 14:58N 37°48' W 122°18'0 0.0
2018-Feb-11 14:28N 37°48' W 122°18'0 0.0
2018-Feb-11 13:58N 37°48' W 122°18'0 0.0
2018-Feb-11 13:28N 37°48' W 122°18'0 0.0
2018-Feb-11 12:58N 37°48' W 122°18'0 0.0
2018-Feb-11 12:28N 37°48' W 122°18'0 0.0
2018-Feb-11 11:58N 37°48' W 122°18'0 0.0
2018-Feb-11 11:28N 37°48' W 122°18'0 0.0
2018-Feb-11 10:58N 37°48' W 122°18'0 0.0
2018-Feb-11 10:28N 37°48' W 122°18'0 0.0
2018-Feb-11 09:58N 37°48' W 122°18'0 0.0
2018-Feb-11 09:28N 37°48' W 122°18'0 0.0
2018-Feb-11 08:58N 37°48' W 122°18'0 0.0
2018-Feb-11 08:28N 37°48' W 122°18'0 0.0
2018-Feb-11 07:58N 37°48' W 122°18'0 0.0
2018-Feb-11 07:28N 37°48' W 122°18'0 0.0
2018-Feb-11 06:55N 37°48' W 122°18'0 0.0
2018-Feb-11 06:28N 37°48' W 122°18'0 0.0
2018-Feb-11 05:58N 37°48' W 122°18'0 0.0
2018-Feb-11 05:28N 37°48' W 122°18'0 0.0
2018-Feb-11 04:58N 37°48' W 122°18'0 0.0
2018-Feb-11 04:28N 37°48' W 122°18'0 0.0
2018-Feb-11 03:58N 37°48' W 122°18'0 0.0
2018-Feb-11 03:28N 37°48' W 122°18'0 0.0
2018-Feb-11 02:58N 37°48' W 122°18'0 0.0
2018-Feb-11 02:28N 37°48' W 122°18'0 0.0
2018-Feb-11 01:58N 37°48' W 122°18'0 0.0
2018-Feb-11 01:28N 37°48' W 122°18'0 0.0
2018-Feb-11 00:58N 37°48' W 122°18'0 0.0
2018-Feb-11 00:28N 37°48' W 122°18'0 0.0
2018-Feb-10 23:58N 37°48' W 122°18'0 0.0
2018-Feb-10 23:28N 37°48' W 122°18'0 0.0
2018-Feb-10 22:58N 37°48' W 122°18'0 0.0
2018-Feb-10 22:28N 37°48' W 122°18'0 0.0
2018-Feb-10 21:58N 37°48' W 122°18'0 0.0
2018-Feb-10 21:28N 37°48' W 122°18'0 0.0
2018-Feb-10 20:58N 37°48' W 122°18'0 0.0
2018-Feb-10 20:28N 37°48' W 122°18'0 0.0
2018-Feb-10 19:58N 37°48' W 122°18'0 0.0
2018-Feb-10 19:28N 37°48' W 122°18'0 0.0
2018-Feb-10 18:58N 37°48' W 122°18'0 0.0
2018-Feb-10 18:28N 37°48' W 122°18'0 0.0
2018-Feb-10 17:58N 37°48' W 122°18'0 0.0
2018-Feb-10 17:28N 37°48' W 122°18'0 0.0
2018-Feb-10 16:58N 37°48' W 122°18'0 0.0
2018-Feb-10 16:28N 37°48' W 122°18'0 0.0
2018-Feb-10 15:58N 37°48' W 122°18'0 0.0
2018-Feb-10 15:28N 37°48' W 122°18'0 0.0
2018-Feb-10 14:58N 37°48' W 122°18'0 0.0
2018-Feb-10 14:28N 37°48' W 122°18'0 0.0
2018-Feb-10 13:58N 37°48' W 122°18'0 0.0
2018-Feb-10 13:28N 37°48' W 122°18'0 0.0
2018-Feb-10 12:58N 37°48' W 122°18'0 0.0
2018-Feb-10 12:28N 37°48' W 122°18'0 0.0
2018-Feb-10 11:58N 37°48' W 122°18'0 0.0
2018-Feb-10 11:28N 37°48' W 122°18'0 0.0
2018-Feb-10 10:58N 37°48' W 122°18'0 0.0
2018-Feb-10 10:28N 37°48' W 122°18'0 0.0
2018-Feb-10 09:58N 37°48' W 122°18'0 0.0
2018-Feb-10 09:28N 37°48' W 122°18'0 0.0
2018-Feb-10 08:58N 37°48' W 122°18'0 0.0
2018-Feb-10 08:28N 37°48' W 122°18'0 0.0
2018-Feb-10 07:58N 37°48' W 122°18'0 0.0
2018-Feb-10 07:28N 37°48' W 122°18'0 0.0
2018-Feb-10 06:58N 37°48' W 122°18'0 0.0
2018-Feb-10 06:28N 37°48' W 122°18'0 0.0
2018-Feb-10 05:58N 37°48' W 122°18'0 0.0
2018-Feb-10 05:28N 37°48' W 122°18'0 0.0
2018-Feb-10 04:58N 37°48' W 122°18'0 0.0
2018-Feb-10 04:28N 37°48' W 122°18'0 0.0
2018-Feb-10 03:58N 37°48' W 122°18'0 0.0
2018-Feb-10 03:28N 37°48' W 122°18'0 0.0
2018-Feb-10 02:58N 37°48' W 122°18'0 0.0
2018-Feb-10 02:28N 37°48' W 122°18'0 0.0
2018-Feb-10 01:58N 37°48' W 122°18'0 0.0
2018-Feb-10 01:28N 37°48' W 122°18'0 0.0
2018-Feb-10 00:58N 37°48' W 122°18'0 0.0
2018-Feb-10 00:28N 37°48' W 122°18'0 0.0
2018-Feb-09 23:58N 37°48' W 122°18'0 0.0
2018-Feb-09 23:28N 37°48' W 122°18'0 0.0
2018-Feb-09 22:58N 37°48' W 122°18'0 0.0
2018-Feb-09 22:46N 37°48' W 122°18'0 0.0
2018-Feb-08 01:28N 37°48' W 122°18'0 0.0
2018-Feb-08 00:58N 37°48' W 122°18'0 0.0
2018-Feb-08 00:28N 37°48' W 122°18'0 0.0
2018-Feb-07 23:58N 37°48' W 122°18'0 0.0
2018-Feb-07 23:28N 37°48' W 122°18'0 0.0
2018-Feb-07 22:58N 37°48' W 122°18'0 0.0
2018-Feb-07 22:28N 37°48' W 122°18'0 0.0
2018-Feb-07 21:58N 37°48' W 122°18'0 0.0
2018-Feb-07 21:28N 37°48' W 122°18'3 0.2
2018-Feb-07 09:30N 37°46' W 122°20'0 0.0
2018-Feb-07 09:00N 37°46' W 122°20'0 0.0
2018-Feb-07 08:30N 37°46' W 122°20'0 0.1
2018-Feb-07 08:00N 37°46' W 122°20'0 0.0
2018-Feb-07 07:30N 37°46' W 122°20'0 0.2
2018-Feb-07 07:00N 37°46' W 122°21'0 0.1
2018-Feb-07 06:30N 37°46' W 122°20'0 0.0
2018-Feb-07 06:00N 37°46' W 122°20'0 0.0
2018-Feb-07 05:30N 37°46' W 122°20'0 0.0
2018-Feb-07 05:00N 37°46' W 122°20'0 0.0
2018-Feb-07 04:30N 37°46' W 122°20'0 0.0
2018-Feb-07 03:57N 37°46' W 122°20'0 0.0
2018-Feb-07 03:30N 37°46' W 122°20'0 0.0
2018-Feb-07 03:00N 37°46' W 122°20'0 0.0
2018-Feb-07 02:30N 37°46' W 122°20'0 0.1
2018-Feb-07 02:00N 37°46' W 122°21'0 0.4
2018-Feb-07 01:30N 37°46' W 122°20'0 0.0
2018-Feb-07 01:00N 37°46' W 122°20'0 0.0
2018-Feb-07 00:27N 37°46' W 122°20'0 0.0
2018-Feb-07 00:00N 37°46' W 122°20'0 0.0
2018-Feb-06 23:30N 37°46' W 122°20'0 0.0
2018-Feb-06 23:00N 37°46' W 122°20'0 0.0
2018-Feb-06 22:27N 37°46' W 122°20'0 0.0
2018-Feb-06 21:57N 37°46' W 122°20'0 0.0
2018-Feb-06 21:27N 37°46' W 122°20'0 0.0
2018-Feb-06 21:00N 37°46' W 122°20'0 0.0
2018-Feb-06 20:30N 37°46' W 122°20'0 0.0
2018-Feb-06 20:00N 37°46' W 122°20'0 0.0
2018-Feb-06 19:30N 37°46' W 122°20'0 0.1
2018-Feb-06 18:57N 37°46' W 122°20'0 0.3
2018-Feb-06 18:30N 37°46' W 122°20'0 0.1
2018-Feb-06 18:00N 37°46' W 122°20'0 0.0
2018-Feb-06 17:27N 37°46' W 122°20'0 0.0
2018-Feb-06 17:00N 37°46' W 122°20'0 0.0
2018-Feb-06 16:30N 37°46' W 122°20'0 0.0
2018-Feb-06 16:00N 37°46' W 122°20'0 0.0
2018-Feb-06 15:30N 37°46' W 122°20'0 0.0
2018-Feb-06 15:00N 37°46' W 122°20'0 0.0
2018-Feb-06 14:27N 37°46' W 122°20'0 0.0
2018-Feb-06 14:00N 37°46' W 122°20'0 0.1
2018-Feb-06 13:30N 37°46' W 122°21'0 0.3
2018-Feb-06 13:00N 37°46' W 122°20'0 0.1
2018-Feb-06 12:30N 37°46' W 122°20'0 0.0
2018-Feb-06 12:00N 37°46' W 122°20'0 0.1
2018-Feb-06 11:30N 37°46' W 122°20'0 0.0
2018-Feb-06 11:00N 37°46' W 122°20'0 0.0
2018-Feb-06 10:30N 37°46' W 122°20'0 0.0
2018-Feb-06 10:00N 37°46' W 122°20'0 0.0
2018-Feb-06 09:30N 37°46' W 122°20'0 0.0
2018-Feb-06 09:00N 37°46' W 122°20'0 0.0
2018-Feb-06 08:30N 37°46' W 122°20'0 0.0
2018-Feb-06 08:00N 37°46' W 122°20'0 0.0
2018-Feb-06 07:30N 37°46' W 122°20'0 0.0
2018-Feb-06 07:00N 37°46' W 122°20'0 0.0
2018-Feb-06 06:30N 37°46' W 122°20'0 0.2
2018-Feb-06 06:00N 37°46' W 122°20'0 0.2
2018-Feb-06 05:30N 37°46' W 122°20'0 0.0
2018-Feb-06 05:00N 37°46' W 122°20'0 0.0
2018-Feb-06 04:30N 37°46' W 122°20'0 0.0
2018-Feb-06 04:00N 37°46' W 122°20'0 0.0
2018-Feb-06 03:30N 37°46' W 122°20'0 0.0
2018-Feb-06 03:00N 37°46' W 122°20'0 0.0
2018-Feb-06 02:30N 37°46' W 122°20'0 0.0
2018-Feb-06 02:00N 37°46' W 122°20'0 0.0
2018-Feb-06 01:30N 37°46' W 122°20'0 0.0
2018-Feb-06 01:00N 37°46' W 122°20'0 0.2
2018-Feb-06 00:30N 37°46' W 122°21'0 0.3
2018-Feb-06 00:00N 37°46' W 122°20'0 0.1
2018-Feb-05 23:30N 37°46' W 122°20'0 0.0
2018-Feb-05 23:00N 37°46' W 122°20'0 0.0
2018-Feb-05 22:30N 37°46' W 122°20'0 0.0
2018-Feb-05 22:00N 37°46' W 122°20'0 0.0
2018-Feb-05 21:30N 37°46' W 122°20'0 0.0
2018-Feb-05 21:00N 37°46' W 122°20'0 0.0
2018-Feb-05 20:30N 37°46' W 122°20'0 0.0
2018-Feb-05 20:00N 37°46' W 122°20'0 0.0
2018-Feb-05 19:30N 37°46' W 122°20'0 0.1
2018-Feb-05 19:00N 37°46' W 122°20'0 0.2
2018-Feb-05 18:30N 37°46' W 122°20'0 0.2
2018-Feb-05 18:00N 37°46' W 122°21'0 0.1
2018-Feb-05 17:30N 37°46' W 122°20'0 0.0
2018-Feb-05 17:00N 37°46' W 122°20'0 0.0
2018-Feb-05 16:30N 37°46' W 122°20'0 0.0
2018-Feb-05 16:00N 37°46' W 122°20'0 0.0
2018-Feb-05 15:30N 37°46' W 122°20'0 0.0
2018-Feb-05 15:00N 37°46' W 122°20'0 0.0
2018-Feb-05 14:30N 37°46' W 122°20'0 0.0
2018-Feb-05 14:00N 37°46' W 122°20'0 0.0
2018-Feb-05 13:30N 37°46' W 122°20'0 0.0
2018-Feb-05 13:00N 37°46' W 122°20'0 0.0
2018-Feb-05 12:30N 37°46' W 122°20'0 0.2
2018-Feb-05 12:00N 37°46' W 122°20'0 0.1
2018-Feb-05 11:30N 37°46' W 122°20'0 0.1
2018-Feb-05 11:00N 37°46' W 122°20'0 0.0
2018-Feb-05 10:30N 37°46' W 122°20'0 0.0
2018-Feb-05 10:00N 37°46' W 122°20'0 0.0
2018-Feb-05 09:30N 37°46' W 122°20'0 0.0
2018-Feb-05 09:00N 37°46' W 122°20'0 0.0
2018-Feb-05 08:30N 37°46' W 122°20'0 0.0
2018-Feb-05 08:00N 37°46' W 122°20'0 0.0
2018-Feb-05 07:30N 37°46' W 122°20'0 0.0
2018-Feb-05 07:00N 37°46' W 122°20'0 0.0
2018-Feb-05 06:30N 37°46' W 122°20'0 0.2
2018-Feb-05 05:30N 37°46' W 122°21'0 0.1
2018-Feb-05 05:00N 37°46' W 122°20'0 0.0
2018-Feb-05 04:30N 37°46' W 122°20'1 2.6
2018-Feb-05 04:00N 37°47' W 122°22'510.8
2018-Feb-05 03:30N 37°52' W 122°25'714.6
2018-Feb-05 03:01N 37°59' W 122°25'714.1
2018-Feb-05 02:31N 38°03' W 122°18'712.2
2018-Feb-05 01:58N 38°02' W 122°10'610.5
2018-Feb-05 01:26N 38°04' W 122°03'4 9.4
2018-Feb-05 00:59N 38°04' W 121°58'5 8.8
2018-Feb-05 00:27N 38°04' W 121°52'  

Dump ship's entire track history